»·PEaware :: SWA1776 KPDX-KSLC

SWA1776 :: KPDX-KSLC

FLIGHT INFORMATION

Flight Status: Arrived
Operator:
Southwest Airlines
More flights by this operator :: More flights under this callsign
Pilot: Drew L. (13237)
Aircraft: BOEING 737-800
(B738)
More flights by this aircraft type
Origin: KPDX Portland Intl
United States
Destination: KSLC Salt Lake City Intl
United States
More flights between these airports :: More routes between these airports
Route: WHAMY4 IMB J15 BOI BYI SKEES5
File this flight plan on PilotEdge
Remarks: PBN / A1B1C1D1S1S2 DOF / 180721 REG / N806SB EET / KZLC0028 OPR / SWA PER / C RMK / TCAS SIMBRIEF
Altitude:
(Current/Filed)
35,000ft
Speed:
(Current/Filed)
447kts
Departed: 20-Jul-18 08:10 PM
Arrived: 20-Jul-18 09:36 PM
Distance/Time
Traveled:
546nm/1:26
Distance/Time
To Go:
Arrived

Flight Plot

Page will automatically refresh every two minutes.

Flight plan parsing failed; only flown route is shown


Map Options




Map Legend


Flown Route
Filed Route
Departure Airport
Arrival Airport
Navaid (VOR, NDB)
Fix

Horizontal Profiles

Position Reports

Time Latitude Longitude Heading Altitude Ground
Speed
20-Jul-18 19:49 45.589859 -122.597324 208 36ft 0kts
20-Jul-18 19:50 45.589859 -122.597324 208 36ft 0kts
20-Jul-18 19:51 45.589859 -122.597324 208 36ft 0kts
20-Jul-18 19:52 45.589859 -122.597324 208 36ft 0kts
20-Jul-18 19:53 45.589859 -122.597324 208 36ft 0kts
20-Jul-18 19:54 45.589859 -122.597324 208 36ft 0kts
20-Jul-18 19:55 45.589859 -122.597324 208 37ft 0kts
20-Jul-18 19:56 45.589859 -122.597324 208 37ft 0kts
20-Jul-18 19:57 45.589859 -122.597324 208 37ft 0kts
20-Jul-18 19:58 45.589859 -122.597324 208 37ft 0kts
20-Jul-18 19:59 45.590078 -122.597142 221 37ft 2kts
20-Jul-18 20:00 45.590228 -122.596366 288 37ft 2kts
20-Jul-18 20:01 45.590168 -122.596192 298 37ft 0kts
20-Jul-18 20:02 45.590311 -122.596559 298 37ft 7kts
20-Jul-18 20:03 45.591373 -122.599714 272 37ft 15kts
20-Jul-18 20:04 45.589681 -122.604068 301 36ft 0kts
20-Jul-18 20:05 45.589148 -122.600710 118 36ft 20kts
20-Jul-18 20:06 45.585968 -122.594664 119 36ft 24kts
20-Jul-18 20:07 45.582022 -122.584560 118 37ft 24kts
20-Jul-18 20:08 45.581557 -122.583675 149 37ft 0kts
20-Jul-18 20:09 45.580712 -122.584493 307 37ft 11kts
20-Jul-18 20:10 45.580878 -122.584852 300 37ft 0kts
20-Jul-18 20:11 45.585383 -122.596399 298 37ft 125kts
20-Jul-18 20:12 45.608597 -122.653607 304 1961ft 178kts
20-Jul-18 20:13 45.636148 -122.716845 300 3770ft 221kts
20-Jul-18 20:14 45.669398 -122.802488 286 6030ft 258kts
20-Jul-18 20:15 45.645375 -122.896281 215 8708ft 280kts
20-Jul-18 20:16 45.569081 -122.882059 137 10793ft 325kts
20-Jul-18 20:17 45.523401 -122.764492 116 12841ft 352kts
20-Jul-18 20:18 45.480392 -122.637399 117 15094ft 368kts
20-Jul-18 20:19 45.434924 -122.503726 117 17284ft 383kts
20-Jul-18 20:20 45.387903 -122.366225 118 19308ft 397kts
20-Jul-18 20:21 45.341598 -122.231265 119 21076ft 409kts
20-Jul-18 20:22 45.291396 -122.085710 120 22778ft 421kts
20-Jul-18 20:23 45.242230 -121.936064 114 24339ft 435kts
20-Jul-18 20:24 45.200801 -121.773838 114 25803ft 446kts
20-Jul-18 20:25 45.157905 -121.606816 114 27167ft 456kts
20-Jul-18 20:26 45.113893 -121.437032 115 28468ft 465kts
20-Jul-18 20:27 45.069258 -121.265915 116 29882ft 466kts
20-Jul-18 20:28 45.024733 -121.096198 118 31354ft 460kts
20-Jul-18 20:29 44.980438 -120.928764 118 32817ft 451kts
20-Jul-18 20:30 44.943860 -120.791576 118 33813ft 447kts
20-Jul-18 20:31 44.899974 -120.628155 118 34815ft 445kts
20-Jul-18 20:32 44.855093 -120.462790 118 34952ft 466kts
20-Jul-18 20:33 44.808133 -120.290882 118 34959ft 485kts
20-Jul-18 20:34 44.751890 -120.085662 118 34977ft 483kts
20-Jul-18 20:35 44.711401 -119.939137 118 34984ft 483kts
20-Jul-18 20:36 44.654372 -119.734327 118 34987ft 483kts
20-Jul-18 20:37 44.612601 -119.589349 119 34987ft 482kts
20-Jul-18 20:38 44.561710 -119.415672 119 35122ft 483kts
20-Jul-18 20:39 44.510973 -119.243535 120 35115ft 479kts
20-Jul-18 20:40 44.459715 -119.070815 120 35117ft 481kts
20-Jul-18 20:41 44.408286 -118.898752 120 35120ft 483kts
20-Jul-18 20:42 44.356192 -118.725728 119 35119ft 483kts
20-Jul-18 20:43 44.303909 -118.553229 119 35119ft 484kts
20-Jul-18 20:44 44.251282 -118.380814 119 35121ft 483kts
20-Jul-18 20:45 44.200743 -118.216124 120 35105ft 484kts
20-Jul-18 20:46 44.147790 -118.044642 120 35087ft 483kts
20-Jul-18 20:47 44.094612 -117.873617 120 35049ft 483kts
20-Jul-18 20:48 44.040977 -117.702310 120 34975ft 483kts
20-Jul-18 20:49 43.987198 -117.531697 120 34952ft 483kts
20-Jul-18 20:50 43.932995 -117.360915 120 34953ft 483kts
20-Jul-18 20:51 43.878988 -117.191631 121 34956ft 483kts
20-Jul-18 20:52 43.825184 -117.024089 121 34957ft 483kts
20-Jul-18 20:53 43.771073 -116.856756 120 34955ft 484kts
20-Jul-18 20:54 43.716130 -116.687921 121 34951ft 483kts
20-Jul-18 20:55 43.660778 -116.518989 120 34952ft 483kts
20-Jul-18 20:56 43.605085 -116.350162 121 34954ft 483kts
20-Jul-18 20:57 43.549641 -116.183461 123 34963ft 481kts
20-Jul-18 20:58 43.485767 -116.023523 126 34971ft 478kts
20-Jul-18 20:59 43.421306 -115.864812 126 34971ft 479kts
20-Jul-18 21:00 43.356231 -115.705365 126 34975ft 479kts
20-Jul-18 21:01 43.291565 -115.547713 126 34975ft 479kts
20-Jul-18 21:02 43.226188 -115.389164 126 34977ft 478kts
20-Jul-18 21:03 43.160986 -115.231732 127 34965ft 477kts
20-Jul-18 21:04 43.095185 -115.073716 127 35006ft 482kts
20-Jul-18 21:05 43.028520 -114.914474 127 35055ft 485kts
20-Jul-18 21:06 42.962131 -114.756727 126 35054ft 477kts
20-Jul-18 21:07 42.896875 -114.602557 125 35055ft 470kts
20-Jul-18 21:08 42.831554 -114.449034 125 35061ft 469kts
20-Jul-18 21:09 42.766325 -114.296490 126 35053ft 468kts
20-Jul-18 21:10 42.700632 -114.143588 126 35055ft 469kts
20-Jul-18 21:11 42.634830 -113.991249 126 35056ft 469kts
20-Jul-18 21:12 42.564758 -113.844514 139 35079ft 456kts
20-Jul-18 21:13 42.474768 -113.723055 141 35055ft 456kts
20-Jul-18 21:14 42.384607 -113.602860 141 35065ft 458kts
20-Jul-18 21:15 42.294218 -113.482791 141 35067ft 457kts
20-Jul-18 21:16 42.203600 -113.362921 141 35065ft 457kts
20-Jul-18 21:17 42.114024 -113.244867 141 35057ft 453kts
20-Jul-18 21:18 42.023611 -113.126231 141 35060ft 454kts
20-Jul-18 21:19 41.932175 -113.006828 141 33207ft 471kts
20-Jul-18 21:20 41.844003 -112.891969 140 29170ft 456kts
20-Jul-18 21:21 41.776109 -112.803989 139 26119ft 470kts
20-Jul-18 21:22 41.681582 -112.681894 138 22065ft 476kts
20-Jul-18 21:23 41.596349 -112.571910 138 20910ft 399kts
20-Jul-18 21:24 41.514635 -112.470691 146 17223ft 397kts
20-Jul-18 21:25 41.425606 -112.400060 154 14977ft 363kts
20-Jul-18 21:26 41.337640 -112.336621 142 13781ft 362kts
20-Jul-18 21:27 41.293170 -112.222962 109 12979ft 329kts
20-Jul-18 21:28 41.266348 -112.120766 125 12979ft 285kts
20-Jul-18 21:29 41.200800 -112.058978 151 11514ft 300kts
20-Jul-18 21:30 41.129505 -112.016401 173 10986ft 262kts
20-Jul-18 21:31 41.054485 -112.005694 175 9288ft 277kts
20-Jul-18 21:32 40.982770 -111.997371 174 7753ft 242kts
20-Jul-18 21:33 40.922097 -111.990288 174 6520ft 198kts
20-Jul-18 21:34 40.875419 -111.984848 173 5584ft 159kts
20-Jul-18 21:35 40.832913 -111.979892 174 4765ft 157kts
20-Jul-18 21:36 40.794634 -111.975436 173 4235ft 88kts
20-Jul-18 21:37 40.789727 -111.977075 235 4235ft 19kts
20-Jul-18 21:38 40.789201 -111.977890 225 4235ft 0kts

Navigation Log

Ident Type
Flight plan parsing failed, navigation log unavailable